Time;durP1;ratioP1;P1;durP2;ratioP2;P2;SDS_P1;SDS_P2;PMS_P1;PMS_P2;Temp;Humidity;BMP_temperature;BMP_pressure;BME280_temperature;BME280_humidity;BME280_pressure;Samples;Min_cycle;Max_cycle;Signal;HPM_P1;HPM_P2
2023/06/21 00:01:03;;;;;;;42.65;37.53;;;20.00;99.90;;;;;;4997780;28;20208;-86
2023/06/21 00:03:30;;;;;;;41.42;36.25;;;19.90;99.90;;;;;;4997532;28;20228;-86
2023/06/21 00:05:57;;;;;;;49.47;36.10;;;19.90;99.90;;;;;;4997679;28;20198;-86
2023/06/21 00:08:23;;;;;;;44.67;37.13;;;19.90;99.90;;;;;;4997561;28;20192;-85
2023/06/21 00:10:52;;;;;;;48.88;40.65;;;19.90;99.90;;;;;;5014915;28;20207;-83
2023/06/21 00:13:19;;;;;;;44.72;37.50;;;19.90;99.90;;;;;;5016905;28;20219;-86
2023/06/21 00:15:46;;;;;;;48.88;40.30;;;20.00;99.90;;;;;;5015833;28;20227;-84
2023/06/21 00:18:13;;;;;;;48.17;39.85;;;19.90;99.90;;;;;;5016025;28;20233;-82
2023/06/21 00:20:40;;;;;;;42.17;35.28;;;19.90;99.90;;;;;;5016220;28;20318;-83
2023/06/21 00:23:08;;;;;;;41.63;36.25;;;19.80;99.90;;;;;;4996396;28;20646;-85
2023/06/21 00:25:35;;;;;;;40.60;36.20;;;19.70;99.90;;;;;;4996567;28;20227;-85
2023/06/21 00:28:03;;;;;;;38.92;34.55;;;19.70;99.90;;;;;;4997569;28;20559;-86
2023/06/21 00:30:30;;;;;;;41.55;36.83;;;19.60;99.90;;;;;;4997327;28;20204;-84
2023/06/21 00:32:57;;;;;;;40.92;36.53;;;19.60;99.90;;;;;;5016128;28;20191;-84
2023/06/21 00:35:24;;;;;;;39.38;34.03;;;19.50;99.90;;;;;;5015954;28;20231;-86
2023/06/21 00:37:51;;;;;;;37.92;32.90;;;19.50;99.90;;;;;;5016098;28;20292;-82
2023/06/21 00:40:21;;;;;;;38.35;32.17;;;19.40;99.90;;;;;;5016255;28;20199;-82
2023/06/21 00:42:48;;;;;;;38.70;31.38;;;19.40;99.90;;;;;;5015363;28;20326;-81
2023/06/21 00:45:17;;;;;;;39.50;31.83;;;19.30;99.90;;;;;;5015758;28;20201;-85
2023/06/21 00:47:45;;;;;;;36.67;29.40;;;19.20;99.90;;;;;;5015575;28;20203;-80
2023/06/21 00:50:12;;;;;;;34.20;27.48;;;19.10;99.90;;;;;;5014566;28;20214;-84
2023/06/21 00:52:42;;;;;;;34.55;28.65;;;19.10;99.90;;;;;;4995880;28;20207;-85
2023/06/21 00:55:09;;;;;;;36.20;27.08;;;19.10;99.90;;;;;;4995873;28;20380;-85
2023/06/21 00:57:37;;;;;;;31.52;25.90;;;19.10;99.90;;;;;;4995253;28;20218;-85
2023/06/21 01:00:05;;;;;;;33.60;25.00;;;19.10;99.90;;;;;;5000271;28;20203;-84
2023/06/21 01:02:33;;;;;;;32.25;22.52;;;19.00;99.90;;;;;;5015695;28;20257;-85
2023/06/21 01:05:03;;;;;;;31.13;25.00;;;19.00;99.90;;;;;;5015606;28;20211;-82
2023/06/21 01:07:43;;;;;;;30.58;23.88;;;18.90;99.90;;;;;;5015058;28;20557;-83
2023/06/21 01:10:21;;;;;;;30.13;24.08;;;18.90;99.90;;;;;;4995278;28;20239;-79
2023/06/21 01:13:04;;;;;;;30.13;23.70;;;18.80;99.90;;;;;;4994511;28;20223;-79
2023/06/21 01:15:38;;;;;;;32.15;22.65;;;18.80;99.90;;;;;;4994867;28;20204;-78
2023/06/21 01:18:08;;;;;;;26.77;20.13;;;18.80;99.90;;;;;;4993837;28;20193;-78
2023/06/21 01:20:36;;;;;;;24.75;19.63;;;18.80;99.90;;;;;;4994773;28;20477;-80
2023/06/21 01:23:23;;;;;;;28.05;20.35;;;18.80;99.90;;;;;;4994056;28;20240;-79
2023/06/21 01:26:06;;;;;;;26.48;19.80;;;18.70;99.90;;;;;;5011715;28;20293;-78
2023/06/21 01:28:47;;;;;;;26.30;20.10;;;18.70;99.90;;;;;;5014208;28;20211;-79
2023/06/21 01:31:17;;;;;;;22.60;18.52;;;18.70;99.90;;;;;;5002663;28;20597;-80
2023/06/21 01:33:45;;;;;;;26.27;19.30;;;18.70;99.90;;;;;;4993787;28;20189;-79
2023/06/21 01:36:13;;;;;;;20.73;15.82;;;18.70;99.90;;;;;;4993875;28;20232;-84
2023/06/21 01:38:39;;;;;;;21.08;16.48;;;18.70;99.90;;;;;;4993785;28;20208;-83
2023/06/21 01:41:10;;;;;;;20.40;15.52;;;18.70;99.90;;;;;;4994106;28;20207;-78
2023/06/21 01:43:38;;;;;;;20.55;16.13;;;18.60;99.90;;;;;;4994053;28;20656;-79
2023/06/21 01:46:06;;;;;;;21.20;16.27;;;18.60;99.90;;;;;;4993784;28;20567;-78
2023/06/21 01:48:35;;;;;;;21.60;15.48;;;18.50;99.90;;;;;;5013013;28;20211;-80
2023/06/21 01:51:04;;;;;;;17.63;15.00;;;18.60;99.90;;;;;;5014317;28;20210;-82
2023/06/21 01:53:33;;;;;;;20.17;14.35;;;18.50;99.90;;;;;;4995953;28;20228;-81
2023/06/21 01:56:02;;;;;;;20.95;14.13;;;18.50;99.90;;;;;;4994528;28;20210;-82
2023/06/21 01:58:31;;;;;;;16.33;12.50;;;18.40;99.90;;;;;;4994173;28;20204;-79
2023/06/21 02:00:59;;;;;;;19.33;13.68;;;18.40;99.90;;;;;;4994160;28;20196;-82
2023/06/21 02:03:28;;;;;;;14.15;10.90;;;18.40;99.90;;;;;;5013201;28;20235;-83
2023/06/21 02:05:59;;;;;;;15.23;10.27;;;18.40;99.90;;;;;;5013536;28;20266;-80
2023/06/21 02:08:28;;;;;;;9.90;8.40;;;18.30;99.90;;;;;;5011825;28;20207;-81
2023/06/21 02:10:55;;;;;;;11.57;8.95;;;18.30;99.90;;;;;;5013442;28;20592;-80
2023/06/21 02:13:26;;;;;;;12.90;8.52;;;18.30;99.90;;;;;;4994980;28;20196;-83
2023/06/21 02:15:53;;;;;;;13.95;8.50;;;18.30;99.90;;;;;;4993716;28;20290;-82
2023/06/21 02:18:22;;;;;;;10.90;7.40;;;18.30;99.90;;;;;;4994313;28;20517;-85
2023/06/21 02:20:49;;;;;;;13.02;6.97;;;18.20;99.90;;;;;;4993608;28;20200;-80
2023/06/21 02:23:17;;;;;;;8.52;6.10;;;18.20;99.90;;;;;;4993884;28;20247;-84
2023/06/21 02:25:44;;;;;;;11.10;5.95;;;18.20;99.90;;;;;;4993992;28;20203;-81
2023/06/21 02:28:11;;;;;;;11.57;5.90;;;18.20;99.90;;;;;;4993028;28;20287;-83
2023/06/21 02:30:38;;;;;;;10.63;5.35;;;18.10;99.90;;;;;;4994004;28;20283;-80
2023/06/21 02:33:05;;;;;;;8.00;5.30;;;18.10;99.90;;;;;;4994082;28;20693;-83
2023/06/21 02:35:32;;;;;;;6.25;4.85;;;18.10;99.90;;;;;;4992476;28;20243;-81
2023/06/21 02:37:59;;;;;;;9.73;5.22;;;18.10;99.90;;;;;;4994223;28;20195;-83
2023/06/21 02:40:27;;;;;;;8.73;4.97;;;18.10;99.90;;;;;;5012853;28;20306;-81
2023/06/21 02:42:54;;;;;;;6.47;4.32;;;18.10;99.90;;;;;;5011992;28;20314;-81
2023/06/21 02:45:21;;;;;;;8.20;4.25;;;18.10;99.90;;;;;;5002698;28;20208;-82
2023/06/21 02:47:48;;;;;;;6.93;4.30;;;18.00;99.90;;;;;;4992912;28;20192;-83
2023/06/21 02:50:17;;;;;;;9.52;5.32;;;18.00;99.90;;;;;;4999754;28;20610;-81
2023/06/21 02:52:44;;;;;;;7.20;4.32;;;18.00;99.90;;;;;;5012275;28;20481;-81
2023/06/21 02:55:11;;;;;;;7.53;4.10;;;18.00;99.90;;;;;;5012394;28;20203;-81
2023/06/21 02:57:40;;;;;;;8.77;5.15;;;17.90;99.90;;;;;;4992644;28;20200;-80
2023/06/21 03:00:17;;;;;;;9.85;5.20;;;17.90;99.90;;;;;;4992514;28;20200;-82
2023/06/21 03:02:44;;;;;;;9.77;4.88;;;17.90;99.90;;;;;;4992489;28;20216;-81
2023/06/21 03:05:12;;;;;;;7.07;4.43;;;17.90;99.90;;;;;;4991829;28;20199;-80
2023/06/21 03:07:43;;;;;;;7.30;4.53;;;18.00;99.90;;;;;;4992524;28;20200;-82
2023/06/21 03:10:11;;;;;;;7.53;4.32;;;17.90;99.90;;;;;;4992482;28;20224;-81
2023/06/21 03:12:40;;;;;;;8.10;4.93;;;17.90;99.90;;;;;;4995605;28;20214;-85
2023/06/21 03:15:09;;;;;;;11.02;4.50;;;17.90;99.90;;;;;;4996280;28;20211;-81
2023/06/21 03:17:39;;;;;;;8.45;5.30;;;17.90;99.90;;;;;;4995260;28;20208;-80
2023/06/21 03:20:12;;;;;;;7.18;4.50;;;17.90;99.90;;;;;;4996259;28;20188;-80
2023/06/21 03:22:39;;;;;;;9.35;5.53;;;17.90;99.90;;;;;;4995560;28;20231;-81
2023/06/21 03:25:06;;;;;;;13.60;5.95;;;17.90;99.90;;;;;;5006761;28;20217;-80
2023/06/21 03:27:33;;;;;;;10.35;5.45;;;17.90;99.90;;;;;;5015214;28;20298;-83
2023/06/21 03:30:02;;;;;;;12.90;5.88;;;17.90;99.90;;;;;;5014004;28;20665;-81
2023/06/21 03:32:29;;;;;;;8.65;4.75;;;18.00;99.90;;;;;;5014946;28;20206;-83
2023/06/21 03:34:58;;;;;;;10.63;5.38;;;18.00;99.90;;;;;;4975360;28;1147243;-81
2023/06/21 03:37:25;;;;;;;8.25;4.70;;;18.00;99.90;;;;;;5015584;28;20187;-80
2023/06/21 03:39:52;;;;;;;6.75;4.60;;;18.00;99.90;;;;;;4996297;28;20196;-80
2023/06/21 03:42:19;;;;;;;8.15;4.60;;;18.00;99.90;;;;;;4996533;28;20196;-80
2023/06/21 03:44:46;;;;;;;8.63;5.00;;;18.00;99.90;;;;;;4996697;28;20366;-82
2023/06/21 03:47:14;;;;;;;9.05;4.90;;;18.00;99.90;;;;;;4996318;28;20200;-83
2023/06/21 03:49:41;;;;;;;8.25;4.68;;;18.00;99.90;;;;;;4997062;28;20231;-83
2023/06/21 03:52:09;;;;;;;7.70;5.22;;;18.00;99.90;;;;;;5007403;28;20208;-81
2023/06/21 03:54:35;;;;;;;11.20;5.68;;;18.10;99.90;;;;;;5016018;28;20595;-83
2023/06/21 03:57:03;;;;;;;10.00;5.70;;;18.10;99.90;;;;;;5015954;28;20191;-82
2023/06/21 03:59:29;;;;;;;7.38;4.60;;;18.10;99.90;;;;;;5004371;28;20219;-80
2023/06/21 04:01:56;;;;;;;7.45;4.80;;;18.10;99.90;;;;;;4995362;28;20192;-85
2023/06/21 04:04:24;;;;;;;9.13;5.55;;;18.10;99.90;;;;;;4995855;28;20224;-81
2023/06/21 04:06:52;;;;;;;9.20;4.20;;;18.10;99.90;;;;;;4995334;28;20196;-83
2023/06/21 04:09:18;;;;;;;11.45;5.50;;;18.10;99.90;;;;;;4995396;28;20215;-80
2023/06/21 04:11:46;;;;;;;8.13;5.35;;;18.10;99.90;;;;;;4995225;28;20553;-82
2023/06/21 04:14:14;;;;;;;8.05;4.85;;;18.10;99.90;;;;;;4994692;28;20291;-84
2023/06/21 04:16:41;;;;;;;10.38;4.85;;;18.10;99.90;;;;;;4995234;28;20718;-84
2023/06/21 04:19:08;;;;;;;6.50;4.40;;;18.20;99.90;;;;;;4995607;28;20207;-84
2023/06/21 04:21:36;;;;;;;8.75;4.75;;;18.20;99.90;;;;;;4994649;28;20200;-84
2023/06/21 04:24:03;;;;;;;15.20;5.57;;;18.20;99.90;;;;;;4994085;28;20234;-87
2023/06/21 04:26:30;;;;;;;11.43;5.35;;;18.30;99.90;;;;;;4995720;28;20204;-83
2023/06/21 04:29:01;;;;;;;9.52;5.10;;;18.40;99.90;;;;;;4994860;28;20214;-86
2023/06/21 04:31:28;;;;;;;8.77;5.40;;;18.40;99.90;;;;;;4994949;28;20664;-84
2023/06/21 04:33:55;;;;;;;12.02;5.55;;;18.50;99.90;;;;;;4995282;28;20384;-84
2023/06/21 04:36:22;;;;;;;8.68;5.13;;;18.60;99.90;;;;;;4994740;28;20238;-86
2023/06/21 04:38:50;;;;;;;7.78;5.40;;;18.70;99.90;;;;;;4995047;28;20202;-85
2023/06/21 04:41:18;;;;;;;9.70;4.93;;;18.70;99.90;;;;;;4995163;28;20515;-85
2023/06/21 04:43:45;;;;;;;11.05;5.32;;;18.70;99.90;;;;;;4994366;28;20228;-85
2023/06/21 04:46:12;;;;;;;9.30;5.13;;;18.70;99.90;;;;;;4995117;28;20219;-83
2023/06/21 04:48:39;;;;;;;9.50;4.90;;;18.80;99.90;;;;;;4994675;28;20211;-85
2023/06/21 04:51:06;;;;;;;8.80;4.90;;;18.80;99.90;;;;;;4995119;28;20604;-85
2023/06/21 04:53:33;;;;;;;11.77;5.57;;;18.90;99.90;;;;;;4996137;28;20237;-84
2023/06/21 04:56:01;;;;;;;8.30;5.20;;;18.90;99.90;;;;;;4995898;28;20235;-85
2023/06/21 04:58:28;;;;;;;7.93;4.70;;;18.90;99.90;;;;;;4998752;28;20219;-84
2023/06/21 05:00:55;;;;;;;7.15;4.82;;;18.90;99.90;;;;;;5015982;28;20188;-82
2023/06/21 05:03:22;;;;;;;8.35;4.70;;;18.90;99.90;;;;;;5014968;28;20647;-83
2023/06/21 05:05:49;;;;;;;9.32;4.72;;;19.00;99.90;;;;;;5011657;28;20210;-84
2023/06/21 05:08:16;;;;;;;5.88;4.40;;;19.20;99.90;;;;;;4996277;28;20231;-84
2023/06/21 05:10:42;;;;;;;7.28;4.88;;;19.20;99.90;;;;;;4995476;28;20204;-84
2023/06/21 05:13:11;;;;;;;8.85;4.43;;;19.30;99.90;;;;;;4996089;28;20196;-83
2023/06/21 05:15:38;;;;;;;7.70;4.60;;;19.40;99.90;;;;;;4995807;28;20235;-84
2023/06/21 05:18:06;;;;;;;7.07;5.10;;;19.50;99.90;;;;;;4995047;28;20256;-83
2023/06/21 05:20:33;;;;;;;8.60;5.25;;;19.50;99.90;;;;;;4995230;28;20208;-83
2023/06/21 05:23:00;;;;;;;6.97;4.85;;;19.50;99.90;;;;;;5002512;28;20223;-84
2023/06/21 05:25:27;;;;;;;6.93;4.38;;;19.50;99.90;;;;;;5014538;28;20227;-83
2023/06/21 05:27:54;;;;;;;6.25;4.82;;;19.50;99.90;;;;;;5001531;28;20881;-83
2023/06/21 05:30:22;;;;;;;7.40;4.85;;;19.50;99.90;;;;;;4996934;28;20195;-84
2023/06/21 05:32:49;;;;;;;8.32;5.13;;;19.50;99.90;;;;;;5014701;28;20294;-83
2023/06/21 05:35:16;;;;;;;8.82;5.25;;;19.50;99.90;;;;;;5014493;28;20235;-83
2023/06/21 05:37:43;;;;;;;10.05;5.75;;;19.60;99.90;;;;;;4995560;28;20601;-84
2023/06/21 05:40:11;;;;;;;7.90;5.70;;;19.60;99.90;;;;;;4995196;28;20200;-83
2023/06/21 05:42:38;;;;;;;10.18;5.72;;;19.60;99.90;;;;;;4994886;28;20374;-83
2023/06/21 05:45:06;;;;;;;7.88;5.30;;;19.60;99.90;;;;;;4994484;28;20232;-84
2023/06/21 05:47:35;;;;;;;7.18;5.40;;;19.60;99.90;;;;;;4994731;28;20200;-83
2023/06/21 05:50:02;;;;;;;8.75;5.05;;;19.60;99.90;;;;;;4995322;28;20219;-84
2023/06/21 05:52:30;;;;;;;6.82;4.65;;;19.80;99.90;;;;;;4995208;28;20227;-85
2023/06/21 05:54:57;;;;;;;6.93;4.60;;;20.10;99.90;;;;;;4996069;28;20204;-85
2023/06/21 05:57:26;;;;;;;7.28;3.58;;;20.50;99.90;;;;;;4994874;28;20223;-83
2023/06/21 05:59:53;;;;;;;7.28;4.00;;;20.80;99.90;;;;;;4994733;28;20210;-85
2023/06/21 06:02:20;;;;;;;7.20;4.03;;;21.20;99.90;;;;;;4995680;28;20218;-85
2023/06/21 06:04:48;;;;;;;6.20;3.83;;;21.50;99.90;;;;;;4994827;28;20315;-84
2023/06/21 06:07:15;;;;;;;8.73;4.18;;;21.80;99.90;;;;;;4995141;28;20206;-83
2023/06/21 06:09:42;;;;;;;6.38;3.92;;;22.10;99.90;;;;;;4995352;28;20199;-85
2023/06/21 06:12:09;;;;;;;5.70;3.75;;;22.30;99.90;;;;;;5012845;28;20206;-87
2023/06/21 06:14:36;;;;;;;8.30;3.67;;;22.60;99.90;;;;;;5014583;28;20234;-88
2023/06/21 06:17:03;;;;;;;5.30;3.95;;;22.90;99.90;;;;;;5014819;28;20596;-85
2023/06/21 06:19:30;;;;;;;5.82;3.78;;;23.10;99.90;;;;;;5014835;28;20634;-88
2023/06/21 06:21:58;;;;;;;6.22;3.10;;;23.30;99.90;;;;;;5014998;28;20282;-87
2023/06/21 06:24:25;;;;;;;7.05;3.40;;;23.50;99.90;;;;;;5015299;28;20250;-86
2023/06/21 06:26:52;;;;;;;10.30;3.63;;;23.80;99.90;;;;;;5014641;28;20708;-89
2023/06/21 06:29:19;;;;;;;3.90;3.28;;;23.90;99.90;;;;;;5015063;28;20294;-87
2023/06/21 06:31:45;;;;;;;4.68;2.75;;;24.00;99.90;;;;;;5014336;28;20207;-85
2023/06/21 06:34:12;;;;;;;5.65;3.25;;;24.00;99.90;;;;;;5014383;28;20271;-90
2023/06/21 06:36:43;;;;;;;5.55;3.17;;;24.20;99.90;;;;;;4996987;28;20237;-87
2023/06/21 06:39:12;;;;;;;6.88;3.13;;;24.20;99.90;;;;;;5014828;28;20207;-85
2023/06/21 06:41:39;;;;;;;5.47;2.85;;;24.30;99.90;;;;;;5011647;28;20214;-81
2023/06/21 06:44:05;;;;;;;5.25;2.90;;;24.30;99.90;;;;;;5003437;28;20235;-86
2023/06/21 06:46:33;;;;;;;4.97;2.78;;;24.40;99.90;;;;;;5015239;28;20285;-83
2023/06/21 06:49:01;;;;;;;5.15;2.85;;;24.40;99.90;;;;;;5013320;28;20217;-88
2023/06/21 06:51:27;;;;;;;6.05;3.15;;;24.50;99.90;;;;;;5007801;28;20233;-85
2023/06/21 06:53:55;;;;;;;8.13;3.60;;;24.60;99.90;;;;;;5015650;28;20309;-85
2023/06/21 06:56:24;;;;;;;6.25;2.92;;;24.70;99.90;;;;;;5007998;28;20568;-86
2023/06/21 06:58:50;;;;;;;4.95;3.25;;;24.80;99.90;;;;;;4998542;28;20207;-84
2023/06/21 07:01:17;;;;;;;4.75;2.65;;;24.80;99.90;;;;;;4997936;28;20610;-85
2023/06/21 07:03:44;;;;;;;5.75;3.08;;;24.90;99.90;;;;;;5003085;28;20202;-86
2023/06/21 07:06:11;;;;;;;4.97;2.50;;;25.00;99.90;;;;;;5017593;28;20679;-83
2023/06/21 07:08:42;;;;;;;6.53;2.47;;;25.10;99.90;;;;;;5017083;28;20209;-83
2023/06/21 07:11:09;;;;;;;5.97;3.05;;;25.30;99.90;;;;;;5015905;28;20235;-83
2023/06/21 07:13:38;;;;;;;6.85;3.20;;;25.30;99.90;;;;;;5017237;28;20531;-83
2023/06/21 07:16:05;;;;;;;5.05;2.38;;;25.40;99.90;;;;;;5007256;28;20821;-87
2023/06/21 07:18:31;;;;;;;5.05;2.53;;;25.60;99.90;;;;;;5014342;28;20286;-84
2023/06/21 07:20:58;;;;;;;3.20;2.30;;;25.80;99.90;;;;;;5012784;28;20604;-81
2023/06/21 07:23:27;;;;;;;6.68;2.88;;;26.00;99.90;;;;;;5016453;28;20291;-83
2023/06/21 07:25:54;;;;;;;6.05;2.50;;;26.10;99.90;;;;;;5017179;28;20254;-83
2023/06/21 07:28:21;;;;;;;4.70;2.17;;;26.30;99.90;;;;;;5016872;28;20204;-85
2023/06/21 07:30:49;;;;;;;4.88;2.30;;;26.40;99.90;;;;;;5016639;28;20204;-85
2023/06/21 07:33:16;;;;;;;5.32;2.70;;;26.50;99.90;;;;;;5017204;28;20633;-84
2023/06/21 07:35:43;;;;;;;6.20;2.53;;;26.60;99.90;;;;;;5016032;28;20227;-85
2023/06/21 07:38:09;;;;;;;4.82;2.88;;;26.70;99.90;;;;;;5016062;28;20263;-82
2023/06/21 07:40:37;;;;;;;4.88;2.70;;;26.80;99.90;;;;;;5009332;28;20208;-84
2023/06/21 07:43:05;;;;;;;5.05;2.80;;;26.80;99.90;;;;;;4996801;28;20208;-89
2023/06/21 07:45:32;;;;;;;7.88;3.20;;;27.00;99.90;;;;;;4997060;28;20227;-84
2023/06/21 07:48:00;;;;;;;6.10;2.65;;;27.00;99.90;;;;;;4997128;28;20204;-82
2023/06/21 07:50:27;;;;;;;5.78;2.85;;;27.20;99.90;;;;;;4996896;28;20204;-82
2023/06/21 07:52:54;;;;;;;5.72;2.70;;;27.30;99.90;;;;;;4996419;28;20220;-85
2023/06/21 07:55:21;;;;;;;6.00;2.50;;;27.40;99.90;;;;;;4997366;28;20212;-84
2023/06/21 07:57:48;;;;;;;4.97;2.92;;;27.50;99.90;;;;;;4996370;28;20202;-84
2023/06/21 08:00:15;;;;;;;6.07;3.33;;;27.50;99.90;;;;;;4996091;28;20222;-85
2023/06/21 08:02:44;;;;;;;6.90;2.95;;;27.30;99.90;;;;;;4996696;28;20196;-83
2023/06/21 08:05:13;;;;;;;5.75;3.10;;;27.10;99.90;;;;;;4996502;28;20290;-82
2023/06/21 08:07:40;;;;;;;4.80;2.75;;;27.20;99.90;;;;;;4995937;28;20467;-87
2023/06/21 08:10:08;;;;;;;7.72;3.13;;;27.40;99.90;;;;;;5013480;28;20225;-82
2023/06/21 08:12:35;;;;;;;6.43;3.22;;;27.50;99.90;;;;;;5012479;28;20258;-85
2023/06/21 08:15:01;;;;;;;5.60;3.00;;;27.30;99.90;;;;;;4995590;28;20196;-85
2023/06/21 08:17:28;;;;;;;4.70;2.67;;;27.40;99.90;;;;;;4995452;28;20558;-83
2023/06/21 08:19:55;;;;;;;5.40;2.92;;;27.40;99.90;;;;;;4995484;28;20310;-86
2023/06/21 08:22:23;;;;;;;6.18;3.30;;;27.50;99.90;;;;;;4995284;28;20239;-83
2023/06/21 08:24:50;;;;;;;7.30;3.00;;;27.70;99.90;;;;;;4996085;28;20516;-86
2023/06/21 08:27:18;;;;;;;5.90;2.80;;;27.70;99.90;;;;;;4996173;28;20680;-87
2023/06/21 08:29:47;;;;;;;5.57;2.63;;;27.90;99.90;;;;;;5014388;28;20215;-86
2023/06/21 08:32:14;;;;;;;5.50;3.22;;;28.00;99.90;;;;;;5015894;28;20206;-85
2023/06/21 08:34:40;;;;;;;4.53;2.75;;;28.00;99.90;;;;;;5010879;28;20287;-83
2023/06/21 08:37:07;;;;;;;5.32;3.30;;;28.10;99.90;;;;;;4976460;28;20227;-85
2023/06/21 08:39:35;;;;;;;7.20;3.13;;;28.30;99.90;;;;;;4976016;28;20204;-82
2023/06/21 08:42:02;;;;;;;5.97;2.85;;;28.30;99.90;;;;;;4975385;28;20243;-84
2023/06/21 08:44:29;;;;;;;6.28;3.05;;;28.40;99.90;;;;;;4975615;28;20308;-85
2023/06/21 08:47:00;;;;;;;6.10;3.10;;;28.40;99.90;;;;;;4975998;28;20620;-83
2023/06/21 08:49:29;;;;;;;4.10;2.88;;;28.60;99.90;;;;;;4975824;28;20209;-85
2023/06/21 08:51:59;;;;;;;8.23;3.10;;;28.60;99.90;;;;;;4975920;28;20263;-84
2023/06/21 08:54:29;;;;;;;5.97;2.78;;;28.40;99.90;;;;;;4975821;28;20216;-81
2023/06/21 08:57:03;;;;;;;7.55;3.20;;;28.40;99.90;;;;;;4985690;28;20568;-84
2023/06/21 08:59:35;;;;;;;8.45;2.88;;;28.30;99.90;;;;;;4994860;28;20658;-84
2023/06/21 09:02:13;;;;;;;6.18;3.33;;;28.40;99.90;;;;;;4993010;28;20188;-85
2023/06/21 09:04:45;;;;;;;5.13;3.03;;;28.50;99.90;;;;;;4995341;28;20222;-81
2023/06/21 09:07:13;;;;;;;6.15;3.45;;;28.50;99.90;;;;;;4995204;28;20243;-82
2023/06/21 09:09:41;;;;;;;11.27;3.80;;;28.40;99.90;;;;;;4990104;28;20204;-84
2023/06/21 09:12:13;;;;;;;7.57;3.75;;;28.40;99.90;;;;;;4994683;28;20522;-81
2023/06/21 09:14:41;;;;;;;6.82;3.47;;;28.30;99.90;;;;;;4992069;28;20597;-83
2023/06/21 09:17:08;;;;;;;7.63;3.33;;;28.30;99.90;;;;;;4993947;28;20200;-83
2023/06/21 09:19:36;;;;;;;7.00;3.60;;;28.40;99.90;;;;;;4992697;28;20203;-83
2023/06/21 09:22:03;;;;;;;7.75;4.03;;;28.50;99.90;;;;;;4994308;28;20298;-82
2023/06/21 09:24:30;;;;;;;7.85;3.70;;;28.60;99.90;;;;;;4992812;28;20203;-83
2023/06/21 09:26:58;;;;;;;7.78;3.58;;;28.60;99.90;;;;;;4991125;28;20250;-84
2023/06/21 09:29:27;;;;;;;6.00;3.35;;;28.50;99.90;;;;;;4993771;28;20199;-83
2023/06/21 09:31:53;;;;;;;7.32;3.35;;;28.50;99.90;;;;;;4993291;28;20660;-82
2023/06/21 09:34:20;;;;;;;8.73;3.50;;;28.60;99.90;;;;;;4994329;28;20573;-82
2023/06/21 09:36:48;;;;;;;5.82;3.22;;;28.60;99.90;;;;;;4994122;28;20560;-83
2023/06/21 09:39:14;;;;;;;6.05;3.17;;;28.70;99.90;;;;;;4974859;28;20213;-82
2023/06/21 09:41:42;;;;;;;7.40;3.60;;;28.50;99.90;;;;;;4975098;28;20215;-86
2023/06/21 09:44:09;;;;;;;8.48;3.28;;;28.60;99.90;;;;;;4974481;28;20223;-82
2023/06/21 09:46:37;;;;;;;8.63;3.85;;;28.50;99.90;;;;;;4974570;28;20228;-84
2023/06/21 09:49:08;;;;;;;8.63;3.35;;;28.50;99.90;;;;;;4974216;28;20678;-83
2023/06/21 09:51:43;;;;;;;7.45;3.22;;;28.40;99.90;;;;;;4973846;28;20215;-81
2023/06/21 09:54:10;;;;;;;7.97;4.00;;;28.30;99.90;;;;;;4974421;28;20212;-82
2023/06/21 09:56:37;;;;;;;7.25;3.83;;;28.20;99.90;;;;;;4974502;28;20204;-83
2023/06/21 09:59:04;;;;;;;6.35;4.32;;;27.90;99.90;;;;;;4974024;28;20307;-81
2023/06/21 10:01:42;;;;;;;7.93;3.38;;;28.10;99.90;;;;;;4974538;28;20216;-80
2023/06/21 10:04:14;;;;;;;7.45;4.53;;;28.00;99.90;;;;;;4974214;28;20193;-82
2023/06/21 10:06:48;;;;;;;8.95;4.80;;;27.90;99.90;;;;;;4975072;28;20235;-83
2023/06/21 10:09:15;;;;;;;8.95;4.40;;;28.10;99.90;;;;;;4993783;28;20561;-80
2023/06/21 10:11:43;;;;;;;8.18;4.70;;;27.90;99.90;;;;;;4993804;28;20200;-83
2023/06/21 10:14:18;;;;;;;6.85;4.30;;;28.00;99.90;;;;;;4988757;28;20674;-82
2023/06/21 10:16:50;;;;;;;8.50;4.80;;;28.30;99.90;;;;;;4974634;28;20291;-83
2023/06/21 10:19:18;;;;;;;6.95;4.18;;;28.30;99.90;;;;;;4973237;28;20281;-85
2023/06/21 10:21:45;;;;;;;8.98;5.40;;;28.20;99.90;;;;;;4974056;28;20604;-84
2023/06/21 10:24:14;;;;;;;8.90;4.43;;;28.10;99.90;;;;;;4974389;28;20508;-82
2023/06/21 10:26:43;;;;;;;9.85;5.28;;;27.90;99.90;;;;;;4980809;28;20223;-81
2023/06/21 10:29:11;;;;;;;10.32;5.30;;;27.90;99.90;;;;;;4988704;28;20295;-81
2023/06/21 10:31:40;;;;;;;11.02;4.65;;;27.90;99.90;;;;;;4992810;28;20228;-83
2023/06/21 10:34:09;;;;;;;8.10;4.95;;;27.90;99.90;;;;;;4973849;28;20214;-85
2023/06/21 10:36:42;;;;;;;10.45;6.10;;;28.00;99.90;;;;;;4991091;28;20238;-83
2023/06/21 10:39:12;;;;;;;7.93;4.78;;;27.90;99.90;;;;;;4995553;28;20199;-81
2023/06/21 10:41:40;;;;;;;10.52;5.90;;;27.70;99.90;;;;;;5009284;28;20214;-87
2023/06/21 10:44:07;;;;;;;13.60;6.22;;;27.50;99.90;;;;;;4994414;28;20622;-84
2023/06/21 10:46:36;;;;;;;9.23;5.50;;;27.40;99.90;;;;;;4993983;28;20520;-85
2023/06/21 10:49:04;;;;;;;9.43;4.97;;;27.20;99.90;;;;;;4993210;28;20212;-84
2023/06/21 10:51:36;;;;;;;10.00;5.50;;;27.10;99.90;;;;;;4993726;28;20199;-86
2023/06/21 10:54:03;;;;;;;10.50;6.25;;;26.80;99.90;;;;;;4994255;28;20596;-86
2023/06/21 10:56:31;;;;;;;5.90;4.68;;;26.40;99.90;;;;;;4993327;28;20292;-88
2023/06/21 10:58:58;;;;;;;10.10;5.53;;;26.10;99.90;;;;;;4994204;28;20215;-86
2023/06/21 11:01:25;;;;;;;10.35;4.97;;;26.00;99.90;;;;;;5000168;28;20277;-85
2023/06/21 11:03:52;;;;;;;7.32;4.78;;;25.70;99.90;;;;;;5013720;28;20227;-85
2023/06/21 11:06:24;;;;;;;9.88;5.50;;;25.70;99.90;;;;;;5013538;28;20251;-86
2023/06/21 11:08:52;;;;;;;11.70;5.97;;;25.60;99.90;;;;;;5010209;28;20487;-83
2023/06/21 11:11:29;;;;;;;9.73;5.88;;;25.50;99.90;;;;;;4993566;28;20199;-83
2023/06/21 11:13:56;;;;;;;9.23;5.82;;;25.50;99.90;;;;;;4993713;28;20200;-83
2023/06/21 11:16:26;;;;;;;10.15;5.88;;;25.30;99.90;;;;;;4993594;28;20287;-86
2023/06/21 11:18:57;;;;;;;10.00;6.07;;;25.00;99.90;;;;;;4993273;28;20615;-83
2023/06/21 11:21:44;;;;;;;9.20;6.40;;;24.90;99.90;;;;;;4992901;28;20247;-80
2023/06/21 11:24:15;;;;;;;8.65;5.60;;;24.80;99.90;;;;;;4993356;28;20196;-85
2023/06/21 11:26:58;;;;;;;10.50;5.95;;;24.80;99.90;;;;;;5010321;28;20231;-81
2023/06/21 11:29:40;;;;;;;12.57;7.45;;;24.70;99.90;;;;;;5012603;28;20199;-82
2023/06/21 11:32:12;;;;;;;11.00;6.78;;;24.40;99.90;;;;;;5007069;28;20214;-83
2023/06/21 11:34:53;;;;;;;8.85;5.95;;;24.30;99.90;;;;;;4997118;28;20612;-83
2023/06/21 11:37:35;;;;;;;11.15;6.57;;;24.40;99.90;;;;;;4996722;28;20684;-83
2023/06/21 11:40:05;;;;;;;9.20;6.60;;;24.60;99.90;;;;;;4997644;28;20294;-83
2023/06/21 11:42:37;;;;;;;8.20;5.65;;;24.50;99.90;;;;;;4996492;28;20192;-83
2023/06/21 11:45:17;;;;;;;9.30;7.88;;;24.60;99.90;;;;;;4996062;28;20200;-84
2023/06/21 11:47:59;;;;;;;10.80;5.97;;;24.70;99.90;;;;;;5014828;28;20210;-84
2023/06/21 11:50:33;;;;;;;11.00;6.05;;;24.80;99.90;;;;;;5005202;28;20212;-75
2023/06/21 11:53:18;;;;;;;10.52;7.22;;;24.90;99.90;;;;;;4995342;28;20233;-83
2023/06/21 11:55:47;;;;;;;8.95;6.35;;;25.00;99.90;;;;;;4996494;28;20646;-79
2023/06/21 11:58:15;;;;;;;11.60;6.22;;;25.20;99.90;;;;;;4997265;28;20200;-87
2023/06/21 12:00:42;;;;;;;10.35;7.47;;;25.40;99.90;;;;;;4997383;28;20516;-87
2023/06/21 12:03:11;;;;;;;11.23;6.53;;;25.50;99.90;;;;;;4997716;28;20212;-87
2023/06/21 12:05:49;;;;;;;8.85;5.47;;;25.70;99.90;;;;;;4994852;28;20223;-88
2023/06/21 12:08:16;;;;;;;9.70;6.70;;;25.80;99.90;;;;;;4996278;28;20199;-85
2023/06/21 12:10:43;;;;;;;9.23;6.30;;;25.80;99.90;;;;;;4996445;28;20207;-79
2023/06/21 12:13:14;;;;;;;9.63;5.75;;;25.80;99.90;;;;;;5015751;28;20207;-84
2023/06/21 12:15:47;;;;;;;8.23;5.35;;;26.00;99.90;;;;;;5011365;28;20199;-83
2023/06/21 12:18:15;;;;;;;11.48;7.88;;;26.10;99.90;;;;;;4997340;28;20238;-87
2023/06/21 12:20:41;;;;;;;11.63;7.05;;;26.30;99.90;;;;;;4996068;28;20219;-78
2023/06/21 12:23:08;;;;;;;11.13;7.90;;;26.30;99.90;;;;;;4995928;28;20199;-82
2023/06/21 12:25:46;;;;;;;12.27;8.70;;;26.40;99.90;;;;;;4995643;28;20215;-84
2023/06/21 12:28:15;;;;;;;7.68;6.75;;;26.60;99.90;;;;;;4995608;28;20588;-80
2023/06/21 12:30:54;;;;;;;8.63;7.70;;;26.60;99.90;;;;;;4996046;28;20259;-76
2023/06/21 12:33:24;;;;;;;8.95;6.82;;;26.70;99.90;;;;;;4995335;28;20199;-86
2023/06/21 12:35:51;;;;;;;11.75;7.28;;;26.60;99.90;;;;;;4995051;28;20228;-86
2023/06/21 12:38:19;;;;;;;12.77;6.45;;;26.70;99.90;;;;;;4995613;28;20208;-87
2023/06/21 12:40:57;;;;;;;10.02;6.35;;;26.80;99.90;;;;;;4995167;28;20214;-82
2023/06/21 12:43:37;;;;;;;8.80;6.97;;;26.90;99.90;;;;;;4999666;28;20218;-88
2023/06/21 12:46:05;;;;;;;9.48;6.90;;;26.80;99.90;;;;;;5015883;28;20219;-86
2023/06/21 12:48:33;;;;;;;9.48;5.32;;;26.90;99.90;;;;;;5016574;28;20203;-89